createdAt,value
2023-05-19T00:00:52.347Z,94.97
2023-05-19T00:01:55.098Z,93.80
2023-05-19T00:02:57.444Z,92.96
2023-05-19T00:04:02.823Z,93.42
2023-05-19T00:05:05.302Z,92.77
2023-05-19T00:06:10.781Z,92.97
2023-05-19T00:07:17.949Z,93.34
2023-05-19T00:08:22.721Z,94.32
2023-05-19T00:09:24.859Z,94.26
2023-05-19T00:10:31.744Z,94.49
2023-05-19T00:11:37.953Z,94.34
2023-05-19T00:12:40.378Z,94.72
2023-05-19T00:13:42.720Z,94.35
2023-05-19T00:14:44.842Z,94.64
2023-05-19T00:15:47.000Z,94.62
2023-05-19T00:16:49.100Z,94.96
2023-05-19T00:17:52.394Z,95.55
2023-05-19T00:18:54.432Z,95.78
2023-05-19T00:19:56.314Z,96.16
2023-05-19T00:20:58.245Z,95.83
2023-05-19T00:22:00.146Z,95.44
2023-05-19T00:23:02.355Z,95.10
2023-05-19T00:24:04.414Z,95.43
2023-05-19T00:25:06.914Z,96.10
2023-05-19T00:26:08.881Z,96.70
2023-05-19T00:27:11.018Z,96.19
2023-05-19T00:28:13.896Z,95.90
2023-05-19T00:29:19.541Z,95.92
2023-05-19T00:30:22.986Z,96.43
2023-05-19T00:31:25.142Z,96.39
2023-05-19T00:32:27.098Z,96.65
2023-05-19T00:33:29.511Z,97.11
2023-05-19T00:34:31.358Z,97.38
2023-05-19T00:35:33.435Z,97.32
2023-05-19T00:36:35.373Z,96.39
2023-05-19T00:37:37.245Z,97.40
2023-05-19T00:38:39.487Z,97.17
2023-05-19T00:39:41.427Z,96.29
2023-05-19T00:40:43.469Z,95.89
2023-05-19T00:41:45.530Z,95.66
2023-05-19T00:42:47.432Z,95.30
2023-05-19T00:43:50.976Z,95.83
2023-05-19T00:44:53.547Z,96.02
2023-05-19T00:45:55.478Z,96.77
2023-05-19T00:46:57.921Z,97.07
2023-05-19T00:47:59.995Z,97.01
2023-05-19T00:49:02.221Z,96.58
2023-05-19T00:50:04.581Z,96.54
2023-05-19T00:51:06.988Z,96.51
2023-05-19T00:52:08.995Z,97.05
2023-05-19T00:53:10.998Z,97.28
2023-05-19T00:54:13.179Z,96.59
2023-05-19T00:55:15.469Z,96.64
2023-05-19T00:56:18.360Z,97.54
2023-05-19T00:57:21.063Z,97.97
2023-05-19T00:58:23.912Z,97.78
2023-05-19T00:59:26.493Z,97.51
2023-05-19T01:00:30.013Z,97.61
2023-05-19T01:01:32.479Z,96.97
2023-05-19T01:02:35.090Z,96.59
2023-05-19T01:03:37.448Z,96.40
2023-05-19T01:04:41.902Z,96.61
2023-05-19T01:05:47.614Z,97.09
2023-05-19T01:06:55.810Z,96.87
2023-05-19T01:07:57.714Z,96.57
2023-05-19T01:09:00.015Z,96.65
2023-05-19T01:10:03.309Z,96.83
2023-05-19T01:11:06.832Z,97.22
2023-05-19T01:12:09.036Z,97.09
2023-05-19T01:13:11.299Z,96.82
2023-05-19T01:14:13.293Z,96.55
2023-05-19T01:15:16.053Z,96.86
2023-05-19T01:16:26.897Z,97.57
2023-05-19T01:17:57.001Z,97.42
2023-05-19T01:19:14.245Z,96.91
2023-05-19T01:20:22.758Z,96.94
2023-05-19T01:21:36.396Z,96.97
2023-05-19T01:22:50.598Z,96.37
2023-05-19T01:24:32.422Z,96.02
2023-05-19T01:25:37.552Z,95.83
2023-05-19T01:27:13.953Z,95.87
2023-05-19T01:28:43.890Z,95.56
2023-05-19T01:30:06.158Z,96.76
2023-05-19T01:31:12.049Z,96.54
2023-05-19T01:32:19.632Z,96.10
2023-05-19T01:33:23.901Z,96.39
2023-05-19T01:34:27.415Z,97.40
2023-05-19T01:35:30.903Z,97.34
2023-05-19T01:36:34.007Z,97.12
2023-05-19T01:37:38.871Z,97.18
2023-05-19T01:38:43.340Z,100.00
2023-05-19T01:39:45.692Z,98.10
2023-05-19T01:40:49.630Z,95.79
2023-05-19T01:41:55.008Z,97.18
2023-05-19T01:42:59.356Z,97.85
2023-05-19T01:44:02.225Z,100.00
2023-05-19T01:45:06.639Z,97.94
2023-05-19T01:46:09.083Z,96.61
2023-05-19T01:47:11.609Z,95.73
2023-05-19T01:48:14.878Z,96.36
2023-05-19T01:49:16.838Z,96.54
2023-05-19T01:50:20.708Z,97.42
2023-05-19T01:51:22.752Z,97.34
2023-05-19T01:52:24.983Z,98.15
2023-05-19T01:53:27.131Z,98.52
2023-05-19T01:54:29.068Z,99.00
2023-05-19T01:55:31.058Z,99.09
2023-05-19T01:56:47.068Z,98.95
2023-05-19T01:58:02.601Z,98.86
2023-05-19T01:59:16.876Z,98.85
2023-05-19T02:00:27.742Z,98.83
2023-05-19T02:01:36.797Z,98.86
2023-05-19T02:02:57.882Z,97.89
2023-05-19T02:04:05.680Z,96.09
2023-05-19T02:05:16.015Z,96.18
2023-05-19T02:06:33.070Z,97.23
2023-05-19T02:07:43.497Z,97.63
2023-05-19T02:08:51.288Z,95.85
2023-05-19T02:10:02.662Z,95.39
2023-05-19T02:11:13.967Z,96.07
2023-05-19T02:12:46.204Z,96.96
2023-05-19T02:13:53.507Z,97.79
2023-05-19T02:15:15.601Z,98.15
2023-05-19T02:16:18.398Z,97.47
2023-05-19T02:17:22.708Z,97.83
2023-05-19T02:18:25.144Z,98.27
2023-05-19T02:19:30.693Z,98.38
2023-05-19T02:20:32.953Z,98.05
2023-05-19T02:21:35.549Z,98.30
2023-05-19T02:22:37.464Z,98.67
2023-05-19T02:23:42.570Z,98.74
2023-05-19T02:24:46.610Z,98.63
2023-05-19T02:25:48.674Z,98.49
2023-05-19T02:26:52.140Z,98.19
2023-05-19T02:27:54.778Z,98.36
2023-05-19T02:28:56.604Z,99.53
2023-05-19T02:29:59.718Z,99.47
2023-05-19T02:31:01.722Z,99.53
2023-05-19T02:32:04.059Z,99.25
2023-05-19T02:33:06.663Z,98.90
2023-05-19T02:34:08.753Z,98.28
2023-05-19T02:35:11.774Z,97.49
2023-05-19T02:36:14.814Z,98.04
2023-05-19T02:37:17.749Z,98.99
2023-05-19T02:38:19.717Z,99.26
2023-05-19T02:39:21.594Z,99.24
2023-05-19T02:40:23.800Z,99.12
2023-05-19T02:41:25.984Z,99.07
2023-05-19T02:42:27.885Z,98.78
2023-05-19T02:43:30.646Z,98.63
2023-05-19T02:44:32.541Z,98.84
2023-05-19T02:45:34.667Z,99.32
2023-05-19T02:46:36.648Z,99.54
2023-05-19T02:47:38.909Z,99.42
2023-05-19T02:48:41.295Z,99.59
2023-05-19T02:49:44.254Z,99.58
2023-05-19T02:50:46.512Z,99.80
2023-05-19T02:51:48.463Z,99.84
2023-05-19T02:52:50.411Z,99.35
2023-05-19T02:53:52.370Z,99.47
2023-05-19T02:54:54.260Z,99.18
2023-05-19T02:55:56.451Z,98.87
2023-05-19T02:56:58.505Z,98.75
2023-05-19T02:58:00.367Z,98.66
2023-05-19T02:59:02.485Z,98.14
2023-05-19T03:00:05.883Z,98.88
2023-05-19T03:01:08.107Z,98.78
2023-05-19T03:02:10.045Z,98.61
2023-05-19T03:03:12.079Z,98.43
2023-05-19T03:04:14.058Z,98.82
2023-05-19T03:05:15.980Z,98.83
2023-05-19T03:06:18.288Z,98.97
2023-05-19T03:07:25.046Z,98.56
2023-05-19T03:08:26.940Z,98.44
2023-05-19T03:09:28.794Z,98.56
2023-05-19T03:10:31.083Z,98.64
2023-05-19T03:11:33.425Z,98.12
2023-05-19T03:12:35.517Z,98.59
2023-05-19T03:13:37.512Z,98.92
2023-05-19T03:14:39.475Z,99.84
2023-05-19T03:15:42.517Z,100.00
2023-05-19T03:16:44.951Z,99.84
2023-05-19T03:17:47.132Z,99.65
2023-05-19T03:18:49.151Z,99.82
2023-05-19T03:19:51.316Z,99.34
2023-05-19T03:20:56.577Z,99.25
2023-05-19T03:21:58.814Z,99.10
2023-05-19T03:23:01.284Z,99.35
2023-05-19T03:24:03.359Z,99.47
2023-05-19T03:25:05.624Z,99.36
2023-05-19T03:26:07.571Z,99.93
2023-05-19T03:27:09.792Z,100.00
2023-05-19T03:28:11.985Z,100.00
2023-05-19T03:29:13.949Z,100.00
2023-05-19T03:30:15.910Z,100.00
2023-05-19T03:31:19.636Z,99.68
2023-05-19T03:32:21.975Z,99.54
2023-05-19T03:33:24.041Z,99.64
2023-05-19T03:34:26.596Z,100.00
2023-05-19T03:35:28.695Z,100.00
2023-05-19T03:36:39.716Z,100.00
2023-05-19T03:37:43.220Z,99.70
2023-05-19T03:38:45.150Z,99.26
2023-05-19T03:39:47.035Z,98.50
2023-05-19T03:40:49.001Z,98.85
2023-05-19T03:41:51.333Z,98.87
2023-05-19T03:42:54.476Z,98.59
2023-05-19T03:43:56.414Z,98.71
2023-05-19T03:44:58.291Z,98.65
2023-05-19T03:46:00.535Z,97.88
2023-05-19T03:47:05.701Z,97.33
2023-05-19T03:48:09.974Z,97.11
2023-05-19T03:49:13.901Z,97.80
2023-05-19T03:50:16.566Z,98.03
2023-05-19T03:51:18.836Z,97.80
2023-05-19T03:52:20.874Z,97.79
2023-05-19T03:53:23.548Z,97.63
2023-05-19T03:54:26.212Z,98.47
2023-05-19T03:55:29.935Z,99.32
2023-05-19T03:56:32.891Z,99.24
2023-05-19T03:57:34.814Z,99.22
2023-05-19T03:58:39.339Z,98.88
2023-05-19T03:59:41.461Z,99.25
2023-05-19T04:00:43.719Z,98.73
2023-05-19T04:01:46.503Z,98.61
2023-05-19T04:02:48.717Z,99.24
2023-05-19T04:03:50.774Z,99.54
2023-05-19T04:04:53.830Z,98.89
2023-05-19T04:05:55.927Z,99.27
2023-05-19T04:06:58.320Z,98.99
2023-05-19T04:08:00.454Z,98.72
2023-05-19T04:09:03.870Z,99.17
2023-05-19T04:10:06.280Z,99.23
2023-05-19T04:11:08.213Z,98.89
2023-05-19T04:12:10.969Z,99.25
2023-05-19T04:13:12.871Z,99.13
2023-05-19T04:14:14.738Z,97.01
2023-05-19T04:15:18.390Z,96.57
2023-05-19T04:16:21.337Z,98.16
2023-05-19T04:17:26.383Z,99.36
2023-05-19T04:18:29.565Z,99.52
2023-05-19T04:19:31.692Z,99.65
2023-05-19T04:20:33.746Z,99.09
2023-05-19T04:21:35.862Z,98.46
2023-05-19T04:22:38.078Z,98.77
2023-05-19T04:23:40.131Z,98.38
2023-05-19T04:24:42.176Z,98.20
2023-05-19T04:25:44.237Z,99.23
2023-05-19T04:26:47.324Z,99.31
2023-05-19T04:27:50.009Z,99.08
2023-05-19T04:28:53.866Z,98.90
2023-05-19T04:29:56.142Z,99.02
2023-05-19T04:30:58.829Z,99.39
2023-05-19T04:32:01.178Z,99.26
2023-05-19T04:33:04.932Z,99.53
2023-05-19T04:34:10.216Z,99.18
2023-05-19T04:35:13.710Z,98.65
2023-05-19T04:36:17.457Z,99.13
2023-05-19T04:37:20.192Z,99.68
2023-05-19T04:38:22.511Z,99.24
2023-05-19T04:39:24.930Z,99.90
2023-05-19T04:40:27.357Z,99.20
2023-05-19T04:41:29.557Z,98.83
2023-05-19T04:42:33.039Z,99.21
2023-05-19T04:43:35.406Z,98.68
2023-05-19T04:44:40.138Z,98.63
2023-05-19T04:45:42.664Z,98.22
2023-05-19T04:46:45.329Z,98.69
2023-05-19T04:47:48.348Z,98.68
2023-05-19T04:48:50.693Z,98.49
2023-05-19T04:49:55.679Z,97.76
2023-05-19T04:50:57.877Z,98.33
2023-05-19T04:51:59.794Z,98.01
2023-05-19T04:53:02.072Z,98.15
2023-05-19T04:54:04.675Z,98.12
2023-05-19T04:55:08.721Z,98.98
2023-05-19T04:56:13.772Z,98.72
2023-05-19T04:57:15.701Z,98.35
2023-05-19T04:58:18.418Z,98.29
2023-05-19T04:59:23.282Z,98.06
2023-05-19T05:00:26.197Z,98.14
2023-05-19T05:01:31.259Z,95.89
2023-05-19T05:02:34.057Z,96.01
2023-05-19T05:03:36.209Z,97.36
2023-05-19T05:04:42.492Z,97.50
2023-05-19T05:05:44.496Z,97.41
2023-05-19T05:06:48.603Z,96.86
2023-05-19T05:07:50.933Z,96.72
2023-05-19T05:08:52.855Z,96.62
2023-05-19T05:09:55.398Z,96.92
2023-05-19T05:10:57.776Z,96.45
2023-05-19T05:12:00.716Z,95.81
2023-05-19T05:13:02.936Z,95.42
2023-05-19T05:14:05.333Z,95.02
2023-05-19T05:15:08.679Z,94.93
2023-05-19T05:16:12.131Z,94.51
2023-05-19T05:17:14.489Z,94.01
2023-05-19T05:18:17.134Z,93.96
2023-05-19T05:19:22.220Z,93.64
2023-05-19T05:20:24.983Z,93.85
2023-05-19T05:21:28.068Z,93.55
2023-05-19T05:22:30.185Z,94.09
2023-05-19T05:23:32.516Z,93.93
2023-05-19T05:24:34.694Z,93.71
2023-05-19T05:25:38.505Z,93.77
2023-05-19T05:26:40.679Z,93.40
2023-05-19T05:27:42.675Z,93.39
2023-05-19T05:28:44.713Z,92.65
2023-05-19T05:29:46.592Z,92.33
2023-05-19T05:30:50.321Z,91.11
2023-05-19T05:31:53.122Z,91.29
2023-05-19T05:32:55.814Z,91.34
2023-05-19T05:34:00.086Z,91.18
2023-05-19T05:35:02.975Z,90.46
2023-05-19T05:36:06.410Z,91.55
2023-05-19T05:37:09.233Z,87.65
2023-05-19T05:38:11.847Z,86.56
2023-05-19T05:39:13.977Z,86.63
2023-05-19T05:40:17.148Z,87.09
2023-05-19T05:41:19.447Z,87.04
2023-05-19T05:42:21.831Z,86.86
2023-05-19T05:43:24.040Z,86.58
2023-05-19T05:44:26.957Z,87.19
2023-05-19T05:45:29.257Z,86.93
2023-05-19T05:46:32.497Z,87.62
2023-05-19T05:47:38.117Z,88.38
2023-05-19T05:48:42.645Z,87.64
2023-05-19T05:49:48.227Z,87.57
2023-05-19T05:50:50.867Z,86.04
2023-05-19T05:52:04.944Z,86.17
2023-05-19T05:53:09.699Z,86.23
2023-05-19T05:54:12.757Z,85.24
2023-05-19T05:55:17.724Z,84.49
2023-05-19T05:56:20.847Z,84.29
2023-05-19T05:57:23.660Z,83.69
2023-05-19T05:58:25.886Z,83.07
2023-05-19T05:59:28.603Z,82.47
2023-05-19T06:00:31.148Z,82.62
2023-05-19T06:01:35.943Z,83.63
2023-05-19T06:02:38.935Z,81.66
2023-05-19T06:03:42.498Z,81.84
2023-05-19T06:04:45.147Z,82.03
2023-05-19T06:05:47.274Z,81.45
2023-05-19T06:06:49.553Z,81.09
2023-05-19T06:07:52.543Z,81.81
2023-05-19T06:08:54.732Z,80.77
2023-05-19T06:09:57.143Z,79.59
2023-05-19T06:10:59.706Z,79.47
2023-05-19T06:12:02.701Z,79.93
2023-05-19T06:13:05.616Z,80.27
2023-05-19T06:14:07.495Z,80.04
2023-05-19T06:15:10.963Z,79.58
2023-05-19T06:16:13.354Z,79.79
2023-05-19T06:17:15.630Z,80.55
2023-05-19T06:18:17.726Z,79.74
2023-05-19T06:19:20.208Z,79.36
2023-05-19T06:20:22.705Z,77.88
2023-05-19T06:21:24.658Z,78.65
2023-05-19T06:22:28.022Z,78.64
2023-05-19T06:23:31.120Z,78.26
2023-05-19T06:24:33.228Z,77.79
2023-05-19T06:25:35.283Z,77.72
2023-05-19T06:26:37.746Z,78.03
2023-05-19T06:27:40.128Z,78.59
2023-05-19T06:28:42.009Z,78.73
2023-05-19T06:29:43.960Z,79.12
2023-05-19T06:30:45.969Z,80.45
2023-05-19T06:31:49.418Z,80.28
2023-05-19T06:32:52.009Z,80.02
2023-05-19T06:33:54.182Z,78.87
2023-05-19T06:34:56.254Z,76.17
2023-05-19T06:35:58.194Z,75.29
2023-05-19T06:37:02.336Z,75.45
2023-05-19T06:38:05.735Z,74.41
2023-05-19T06:39:07.664Z,74.79
2023-05-19T06:40:11.798Z,74.75
2023-05-19T06:41:14.402Z,74.65
2023-05-19T06:42:16.512Z,75.17
2023-05-19T06:43:22.402Z,76.40
2023-05-19T06:44:26.028Z,76.15
2023-05-19T06:45:27.902Z,76.98
2023-05-19T06:46:30.173Z,77.46
2023-05-19T06:47:32.191Z,76.62
2023-05-19T06:48:34.456Z,76.63
2023-05-19T06:49:37.394Z,76.48
2023-05-19T06:50:39.417Z,76.74
2023-05-19T06:51:41.710Z,76.65
2023-05-19T06:52:44.329Z,77.65
2023-05-19T06:53:48.966Z,77.82
2023-05-19T06:54:50.960Z,77.94
2023-05-19T06:55:59.355Z,77.17
2023-05-19T06:57:01.903Z,77.79
2023-05-19T06:58:04.223Z,77.55
2023-05-19T06:59:06.445Z,76.32
2023-05-19T07:00:11.620Z,76.33
2023-05-19T07:01:14.511Z,75.19
2023-05-19T07:02:16.852Z,75.38
2023-05-19T07:03:18.972Z,75.05
2023-05-19T07:04:21.259Z,75.01
2023-05-19T07:05:23.174Z,75.02
2023-05-19T07:06:25.394Z,75.12
2023-05-19T07:07:27.472Z,73.55
2023-05-19T07:08:32.234Z,72.94
2023-05-19T07:09:35.585Z,71.80
2023-05-19T07:10:38.060Z,71.78
2023-05-19T07:11:41.492Z,70.54
2023-05-19T07:12:43.865Z,71.53
2023-05-19T07:13:45.822Z,72.28
2023-05-19T07:14:49.822Z,71.85
2023-05-19T07:15:56.001Z,71.82
2023-05-19T07:16:58.380Z,70.72
2023-05-19T07:18:00.579Z,71.73
2023-05-19T07:19:02.533Z,73.07
2023-05-19T07:20:10.045Z,75.14
2023-05-19T07:21:12.127Z,73.70
2023-05-19T07:22:14.882Z,74.62
2023-05-19T07:23:17.464Z,75.94
2023-05-19T07:24:22.196Z,74.64
2023-05-19T07:25:26.140Z,73.88
2023-05-19T07:26:28.783Z,74.75
2023-05-19T07:27:30.629Z,74.85
2023-05-19T07:28:34.355Z,74.51
2023-05-19T07:29:36.932Z,73.82
2023-05-19T07:30:39.116Z,72.28
2023-05-19T07:31:41.054Z,71.46
2023-05-19T07:32:43.077Z,71.96
2023-05-19T07:33:45.160Z,71.84
2023-05-19T07:34:47.244Z,70.66
2023-05-19T07:35:49.408Z,71.56
2023-05-19T07:36:52.120Z,70.96
2023-05-19T07:37:54.078Z,70.56
2023-05-19T07:38:56.215Z,70.36
2023-05-19T07:39:58.233Z,70.77
2023-05-19T07:41:01.834Z,70.45
2023-05-19T07:42:03.879Z,69.92
2023-05-19T07:43:05.989Z,69.19
2023-05-19T07:44:08.006Z,67.63
2023-05-19T07:45:10.396Z,67.38
2023-05-19T07:46:12.595Z,66.78
2023-05-19T07:47:14.685Z,66.58
2023-05-19T07:48:18.737Z,65.36
2023-05-19T07:49:20.654Z,65.76
2023-05-19T07:50:22.604Z,66.46
2023-05-19T07:51:24.826Z,66.44
2023-05-19T07:52:26.841Z,67.53
2023-05-19T07:53:28.875Z,66.99
2023-05-19T07:54:30.756Z,64.92
2023-05-19T07:55:32.621Z,66.12
2023-05-19T07:56:34.790Z,65.82
2023-05-19T07:57:36.781Z,65.12
2023-05-19T07:58:38.688Z,64.36
2023-05-19T07:59:40.808Z,64.08
2023-05-19T08:00:43.438Z,63.98
2023-05-19T08:01:45.935Z,63.42
2023-05-19T08:02:48.050Z,62.25
2023-05-19T08:03:50.180Z,62.33
2023-05-19T08:04:53.196Z,62.84
2023-05-19T08:05:55.459Z,63.36
2023-05-19T08:06:57.648Z,63.55
2023-05-19T08:07:59.555Z,64.11
2023-05-19T08:09:01.849Z,65.51
2023-05-19T08:10:04.271Z,64.51
2023-05-19T08:11:06.671Z,62.95
2023-05-19T08:12:08.843Z,61.13
2023-05-19T08:13:10.864Z,60.87
2023-05-19T08:14:13.066Z,60.37
2023-05-19T08:15:14.898Z,62.05
2023-05-19T08:16:16.880Z,63.12
2023-05-19T08:17:19.261Z,63.55
2023-05-19T08:18:21.341Z,63.97
2023-05-19T08:19:23.301Z,62.53
2023-05-19T08:20:25.266Z,61.48
2023-05-19T08:21:27.155Z,62.93
2023-05-19T08:22:29.416Z,64.97
2023-05-19T08:23:31.814Z,66.67
2023-05-19T08:24:33.922Z,66.33
2023-05-19T08:25:35.895Z,66.34
2023-05-19T08:26:38.071Z,65.07
2023-05-19T08:27:40.487Z,63.63
2023-05-19T08:28:42.433Z,64.65
2023-05-19T08:29:44.340Z,64.90
2023-05-19T08:30:46.280Z,64.28
2023-05-19T08:31:48.297Z,64.51
2023-05-19T08:32:50.611Z,63.69
2023-05-19T08:33:52.888Z,63.91
2023-05-19T08:34:54.743Z,62.47
2023-05-19T08:35:58.178Z,61.71
2023-05-19T08:37:00.164Z,62.95
2023-05-19T08:38:02.360Z,63.84
2023-05-19T08:39:04.592Z,63.17
2023-05-19T08:40:08.820Z,63.94
2023-05-19T08:41:10.957Z,64.22
2023-05-19T08:42:12.892Z,61.23
2023-05-19T08:43:15.349Z,61.70
2023-05-19T08:44:19.020Z,61.57
2023-05-19T08:45:21.111Z,61.37
2023-05-19T08:46:25.329Z,61.95
2023-05-19T08:47:28.294Z,61.13
2023-05-19T08:48:33.885Z,61.63
2023-05-19T08:49:42.976Z,62.09
2023-05-19T08:50:53.800Z,62.40
2023-05-19T08:51:58.230Z,62.09
2023-05-19T08:53:28.983Z,60.94
2023-05-19T08:54:44.867Z,60.96
2023-05-19T08:56:00.997Z,60.87
2023-05-19T08:57:03.063Z,60.65
2023-05-19T08:58:05.127Z,61.76
2023-05-19T08:59:07.950Z,61.80
2023-05-19T09:00:13.358Z,62.35
2023-05-19T09:01:18.749Z,62.00
2023-05-19T09:02:22.720Z,61.52
2023-05-19T09:03:26.546Z,62.27
2023-05-19T09:04:30.207Z,59.71
2023-05-19T09:05:33.176Z,58.22
2023-05-19T09:06:35.407Z,60.03
2023-05-19T09:07:37.904Z,58.25
2023-05-19T09:08:43.550Z,55.80
2023-05-19T09:09:45.690Z,56.47
2023-05-19T09:10:47.920Z,59.58
2023-05-19T09:11:49.785Z,58.46
2023-05-19T09:12:52.542Z,55.88
2023-05-19T09:13:54.564Z,56.47
2023-05-19T09:14:57.887Z,58.19
2023-05-19T09:16:00.351Z,57.69
2023-05-19T09:17:02.702Z,55.72
2023-05-19T09:18:12.382Z,58.04
2023-05-19T09:19:17.566Z,59.83
2023-05-19T09:20:19.496Z,59.97
2023-05-19T09:21:31.012Z,60.97
2023-05-19T09:22:35.776Z,59.81
2023-05-19T09:23:37.678Z,58.39
2023-05-19T09:24:40.482Z,57.93
2023-05-19T09:25:49.939Z,58.26
2023-05-19T09:26:55.224Z,59.54
2023-05-19T09:27:57.967Z,58.39
2023-05-19T09:28:59.863Z,58.09
2023-05-19T09:30:09.275Z,59.08
2023-05-19T09:31:11.909Z,59.31
2023-05-19T09:32:25.425Z,59.20
2023-05-19T09:33:28.644Z,57.14
2023-05-19T09:34:30.704Z,57.15
2023-05-19T09:35:34.841Z,57.66
2023-05-19T09:36:40.009Z,58.65
2023-05-19T09:37:42.895Z,59.37
2023-05-19T09:38:45.936Z,58.81
2023-05-19T09:39:52.051Z,57.49
2023-05-19T09:40:57.260Z,56.79
2023-05-19T09:41:59.175Z,57.22
2023-05-19T09:43:05.504Z,56.97
2023-05-19T09:44:07.480Z,55.26
2023-05-19T09:45:09.773Z,55.41
2023-05-19T09:46:13.791Z,53.87
2023-05-19T09:47:16.875Z,54.54
2023-05-19T09:48:19.091Z,55.50
2023-05-19T09:49:25.707Z,54.05
2023-05-19T09:50:30.703Z,54.95
2023-05-19T09:51:33.125Z,54.56
2023-05-19T09:52:39.050Z,54.45
2023-05-19T09:53:42.127Z,55.99
2023-05-19T09:54:45.398Z,56.97
2023-05-19T09:55:48.607Z,55.16
2023-05-19T09:57:07.106Z,56.84
2023-05-19T09:58:12.609Z,58.65
2023-05-19T09:59:16.351Z,59.47
2023-05-19T10:00:19.703Z,59.68
2023-05-19T10:01:23.126Z,58.90
2023-05-19T10:02:26.486Z,59.71
2023-05-19T10:03:28.752Z,59.42
2023-05-19T10:04:31.392Z,58.68
2023-05-19T10:05:34.476Z,58.48
2023-05-19T10:06:37.059Z,59.20
2023-05-19T10:07:40.616Z,57.55
2023-05-19T10:08:43.589Z,57.38
2023-05-19T10:09:46.433Z,57.52
2023-05-19T10:10:48.372Z,55.56
2023-05-19T10:11:53.293Z,55.42
2023-05-19T10:12:55.903Z,55.40
2023-05-19T10:13:58.318Z,55.45
2023-05-19T10:15:00.413Z,55.46
2023-05-19T10:16:03.380Z,54.11
2023-05-19T10:17:08.034Z,54.64
2023-05-19T10:18:10.964Z,54.13
2023-05-19T10:19:14.254Z,52.90
2023-05-19T10:20:17.345Z,52.41
2023-05-19T10:21:19.245Z,53.38
2023-05-19T10:22:21.790Z,55.47
2023-05-19T10:23:24.234Z,54.02
2023-05-19T10:24:26.729Z,56.67
2023-05-19T10:25:31.373Z,56.40
2023-05-19T10:26:35.342Z,55.42
2023-05-19T10:27:40.882Z,55.25
2023-05-19T10:28:45.549Z,54.83
2023-05-19T10:29:50.684Z,54.21
2023-05-19T10:30:56.594Z,55.14
2023-05-19T10:32:03.102Z,55.88
2023-05-19T10:33:10.352Z,54.18
2023-05-19T10:34:54.269Z,52.79
2023-05-19T10:36:02.686Z,53.77
2023-05-19T10:37:28.818Z,53.91
2023-05-19T10:38:40.215Z,53.48
2023-05-19T10:39:44.547Z,53.31
2023-05-19T10:41:11.768Z,52.65
2023-05-19T10:42:24.049Z,52.02
2023-05-19T10:43:47.421Z,52.91
2023-05-19T10:45:02.620Z,52.62
2023-05-19T10:46:05.599Z,53.49
2023-05-19T10:47:08.675Z,53.48
2023-05-19T10:48:13.980Z,55.66
2023-05-19T10:49:22.706Z,55.84
2023-05-19T10:50:25.032Z,56.88
2023-05-19T10:51:33.948Z,55.86
2023-05-19T10:52:40.111Z,54.61
2023-05-19T10:53:46.356Z,53.88
2023-05-19T10:54:48.320Z,52.85
2023-05-19T10:55:59.373Z,53.53
2023-05-19T10:57:01.243Z,52.63
2023-05-19T10:58:03.777Z,53.28
2023-05-19T10:59:05.922Z,53.58
2023-05-19T11:00:28.172Z,52.56
2023-05-19T11:01:35.551Z,50.42
2023-05-19T11:02:42.955Z,50.78
2023-05-19T11:03:47.266Z,51.32
2023-05-19T11:04:54.167Z,53.95
2023-05-19T11:06:21.043Z,53.41
2023-05-19T11:07:24.796Z,54.92
2023-05-19T11:08:33.679Z,55.43
2023-05-19T11:09:41.118Z,55.87
2023-05-19T11:10:48.593Z,54.50
2023-05-19T11:11:54.553Z,56.05
2023-05-19T11:12:59.868Z,56.20
2023-05-19T11:14:01.781Z,55.83
2023-05-19T11:15:04.059Z,54.88
2023-05-19T11:16:09.332Z,56.13
2023-05-19T11:17:15.314Z,54.17
2023-05-19T11:18:19.065Z,54.06
2023-05-19T11:19:31.231Z,53.70
2023-05-19T11:20:34.998Z,53.24
2023-05-19T11:21:48.265Z,54.08
2023-05-19T11:23:11.129Z,54.62
2023-05-19T11:24:40.154Z,53.12
2023-05-19T11:25:45.142Z,53.74
2023-05-19T11:26:47.560Z,55.10
2023-05-19T11:27:51.396Z,51.96
2023-05-19T11:28:53.734Z,50.57
2023-05-19T11:30:11.548Z,50.50
2023-05-19T11:31:13.558Z,51.19
2023-05-19T11:32:16.444Z,51.43
2023-05-19T11:33:19.969Z,51.55
2023-05-19T11:34:25.961Z,51.53
2023-05-19T11:35:29.606Z,51.04
2023-05-19T11:36:31.812Z,50.84
2023-05-19T11:37:34.657Z,51.22
2023-05-19T11:38:36.724Z,51.56
2023-05-19T11:39:39.880Z,51.92
2023-05-19T11:40:43.643Z,52.04
2023-05-19T11:41:45.593Z,51.77
2023-05-19T11:42:47.495Z,50.90
2023-05-19T11:43:49.428Z,51.31
2023-05-19T11:44:55.932Z,50.49
2023-05-19T11:45:58.267Z,50.55
2023-05-19T11:47:01.000Z,48.56
2023-05-19T11:48:03.536Z,48.80
2023-05-19T11:49:05.826Z,49.36
2023-05-19T11:50:10.848Z,51.32
2023-05-19T11:51:13.271Z,51.69
2023-05-19T11:52:15.590Z,52.93
2023-05-19T11:53:19.537Z,53.64
2023-05-19T11:54:21.631Z,52.90
2023-05-19T11:55:23.796Z,51.69
2023-05-19T11:56:26.118Z,52.59
2023-05-19T11:57:28.044Z,52.88
2023-05-19T11:58:30.499Z,49.09
2023-05-19T11:59:35.781Z,50.25
2023-05-19T12:00:40.879Z,50.92
2023-05-19T12:01:43.486Z,51.11
2023-05-19T12:02:45.642Z,52.16
2023-05-19T12:03:49.738Z,51.33
2023-05-19T12:04:52.737Z,49.72
2023-05-19T12:05:54.818Z,51.49
2023-05-19T12:06:57.132Z,50.91
2023-05-19T12:08:00.960Z,49.19
2023-05-19T12:09:05.330Z,47.68
2023-05-19T12:10:08.465Z,48.12
2023-05-19T12:11:10.589Z,49.47
2023-05-19T12:12:23.437Z,49.56
2023-05-19T12:13:25.570Z,48.94
2023-05-19T12:14:31.107Z,50.10
2023-05-19T12:15:33.712Z,49.07
2023-05-19T12:16:35.861Z,49.29
2023-05-19T12:17:38.107Z,49.42
2023-05-19T12:18:43.065Z,49.91
2023-05-19T12:19:46.177Z,51.52
2023-05-19T12:20:48.261Z,52.17
2023-05-19T12:21:50.988Z,52.78
2023-05-19T12:22:55.187Z,49.95
2023-05-19T12:23:57.158Z,49.91
2023-05-19T12:24:59.508Z,50.63
2023-05-19T12:26:01.958Z,50.90
2023-05-19T12:27:07.531Z,51.76
2023-05-19T12:28:09.759Z,50.36
2023-05-19T12:29:13.418Z,50.71
2023-05-19T12:30:16.557Z,50.49
2023-05-19T12:31:19.049Z,52.62
2023-05-19T12:32:25.670Z,51.42
2023-05-19T12:33:28.025Z,50.77
2023-05-19T12:34:30.524Z,50.71
2023-05-19T12:35:34.161Z,49.88
2023-05-19T12:36:37.128Z,49.36
2023-05-19T12:37:42.602Z,50.10
2023-05-19T12:38:45.884Z,47.97
2023-05-19T12:39:49.347Z,48.68
2023-05-19T12:40:51.482Z,50.33
2023-05-19T12:41:53.525Z,49.26
2023-05-19T12:42:59.094Z,50.92
2023-05-19T12:44:01.586Z,49.32
2023-05-19T12:45:04.705Z,49.22
2023-05-19T12:46:13.710Z,47.89
2023-05-19T12:47:17.029Z,48.28
2023-05-19T12:48:22.731Z,49.38
2023-05-19T12:49:25.005Z,46.60
2023-05-19T12:50:31.472Z,47.20
2023-05-19T12:51:33.668Z,48.21
2023-05-19T12:52:43.658Z,48.73
2023-05-19T12:53:46.333Z,47.81
2023-05-19T12:54:48.895Z,47.48
2023-05-19T12:55:52.784Z,47.22
2023-05-19T12:56:57.841Z,47.07
2023-05-19T12:57:59.816Z,49.33
2023-05-19T12:59:02.143Z,49.05
2023-05-19T13:00:14.156Z,49.33
2023-05-19T13:01:17.890Z,49.30
2023-05-19T13:02:21.030Z,49.70
2023-05-19T13:03:23.095Z,49.83
2023-05-19T13:04:26.426Z,48.04
2023-05-19T13:05:29.980Z,47.69
2023-05-19T13:06:33.138Z,46.84
2023-05-19T13:07:35.676Z,46.29
2023-05-19T13:08:41.261Z,47.48
2023-05-19T13:09:43.159Z,47.82
2023-05-19T13:10:47.099Z,46.79
2023-05-19T13:11:51.273Z,45.75
2023-05-19T13:12:54.704Z,45.99
2023-05-19T13:13:57.681Z,47.25
2023-05-19T13:15:00.116Z,48.27
2023-05-19T13:16:02.348Z,48.71
2023-05-19T13:17:04.403Z,46.46
2023-05-19T13:18:10.953Z,45.82
2023-05-19T13:19:25.377Z,46.17
2023-05-19T13:20:28.633Z,47.32
2023-05-19T13:21:31.231Z,46.15
2023-05-19T13:22:33.113Z,46.61
2023-05-19T13:23:35.012Z,45.55
2023-05-19T13:24:36.926Z,45.93
2023-05-19T13:25:39.234Z,47.07
2023-05-19T13:26:41.795Z,46.30
2023-05-19T13:27:48.007Z,47.37
2023-05-19T13:28:50.006Z,46.72
2023-05-19T13:29:52.030Z,47.13
2023-05-19T13:30:55.221Z,48.71
2023-05-19T13:31:59.137Z,48.00
2023-05-19T13:33:03.098Z,47.95
2023-05-19T13:34:05.069Z,47.67
2023-05-19T13:35:07.388Z,47.49
2023-05-19T13:36:09.274Z,47.83
2023-05-19T13:37:12.217Z,48.67
2023-05-19T13:38:14.601Z,48.35
2023-05-19T13:39:16.716Z,49.68
2023-05-19T13:40:19.197Z,48.47
2023-05-19T13:41:27.109Z,48.19
2023-05-19T13:42:29.289Z,46.80
2023-05-19T13:43:31.588Z,46.75
2023-05-19T13:44:33.450Z,47.79
2023-05-19T13:45:35.420Z,48.57